Time;durP1;ratioP1;P1;durP2;ratioP2;P2;SDS_P1;SDS_P2;PMS_P1;PMS_P2;Temp;Humidity;BMP_temperature;BMP_pressure;BME280_temperature;BME280_humidity;BME280_pressure;Samples;Min_cycle;Max_cycle;Signal;HPM_P1;HPM_P2
2024/03/29 04:38:50;;;;;;;1.20;0.50;;;;;;;6.53;55.28;94962.69;6025228;23;20069;-77
2024/03/29 04:41:16;;;;;;;1.95;0.95;;;;;;;6.56;55.14;94957.13;4935373;29;20066;-79
2024/03/29 04:43:44;;;;;;;0.63;0.35;;;;;;;6.60;54.97;94973.88;4941617;29;20051;-80
2024/03/29 04:46:12;;;;;;;1.25;0.60;;;;;;;6.65;54.77;94962.94;4935054;29;20062;-80
2024/03/29 04:48:40;;;;;;;1.15;0.40;;;;;;;6.70;54.42;94955.34;4936398;29;20071;-79
2024/03/29 04:51:06;;;;;;;1.38;0.35;;;;;;;6.74;54.15;94943.59;4935466;29;20059;-79
2024/03/29 09:07:18;;;;;;;1.52;1.17;;;;;;;7.84;63.16;95119.56;4916697;29;20779;-80
2024/03/29 09:09:44;;;;;;;3.00;1.85;;;;;;;7.95;63.17;95120.75;4916351;29;20056;-78
2024/03/29 09:12:11;;;;;;;1.30;1.20;;;;;;;8.05;63.31;95129.75;4916384;29;20501;-78
2024/03/29 09:14:38;;;;;;;1.80;1.20;;;;;;;8.14;62.91;95134.75;4916658;29;20052;-78
2024/03/29 09:17:06;;;;;;;2.47;1.60;;;;;;;8.22;62.77;95132.72;4926305;29;20083;-78
2024/03/29 09:19:33;;;;;;;4.35;1.55;;;;;;;8.32;62.57;95128.91;4917708;29;20228;-78
2024/03/29 09:22:00;;;;;;;2.78;1.08;;;;;;;8.40;62.51;95128.69;4916466;29;20052;-78
2024/03/29 09:24:28;;;;;;;1.42;0.90;;;;;;;8.50;62.53;95139.47;4916534;29;20064;-78
2024/03/29 09:26:54;;;;;;;1.48;0.90;;;;;;;8.61;62.10;95136.22;4915959;29;20433;-78
2024/03/29 09:29:21;;;;;;;2.08;1.10;;;;;;;8.74;61.99;95132.00;4916206;29;20060;-78
2024/03/29 09:31:48;;;;;;;1.38;0.95;;;;;;;8.85;61.32;95141.75;4916028;29;20055;-78
2024/03/29 09:34:15;;;;;;;1.70;0.98;;;;;;;8.95;61.15;95110.91;4915647;29;20067;-78
2024/03/29 09:36:41;;;;;;;1.83;0.65;;;;;;;9.05;61.25;95126.88;4915518;29;20052;-78
2024/03/29 09:39:08;;;;;;;1.00;0.77;;;;;;;9.14;61.17;95113.59;4915920;29;20064;-78
2024/03/29 09:41:39;;;;;;;0.85;0.50;;;;;;;9.23;61.33;95123.56;4916183;29;20071;-78
2024/03/29 09:44:06;;;;;;;1.45;0.88;;;;;;;9.33;61.26;95109.28;4923676;29;20063;-79
2024/03/29 09:46:34;;;;;;;0.80;0.73;;;;;;;9.41;61.76;95089.00;4935520;29;20056;-79
2024/03/29 09:49:03;;;;;;;1.73;0.82;;;;;;;9.49;62.41;95083.56;4936246;29;20083;-79
2024/03/29 09:51:30;;;;;;;1.95;1.05;;;;;;;9.59;62.78;95085.66;4936457;29;20062;-79
2024/03/29 09:53:59;;;;;;;1.50;1.13;;;;;;;9.67;62.25;95097.63;4923278;29;20067;-78
2024/03/29 09:56:27;;;;;;;1.45;1.00;;;;;;;9.75;63.09;95093.97;4919937;29;20048;-78
2024/03/29 09:58:55;;;;;;;1.95;0.70;;;;;;;9.81;63.25;95099.09;4920638;29;20428;-80
2024/03/29 10:01:22;;;;;;;0.95;0.63;;;;;;;9.88;63.74;95114.69;4919796;29;20083;-80
2024/03/29 10:03:50;;;;;;;1.30;0.75;;;;;;;9.95;64.25;95130.25;4919438;29;20420;-80
2024/03/29 10:06:19;;;;;;;2.22;1.20;;;;;;;10.00;63.87;95138.22;4919299;29;20111;-81
2024/03/29 10:08:46;;;;;;;1.33;1.00;;;;;;;10.04;64.12;95165.47;4919123;29;20063;-81
2024/03/29 10:11:16;;;;;;;2.22;1.58;;;;;;;10.09;64.69;95181.25;4919344;29;20056;-80
2024/03/29 10:13:42;;;;;;;2.45;1.52;;;;;;;10.09;63.68;95205.47;4918728;29;20107;-81
2024/03/29 10:16:11;;;;;;;1.80;1.38;;;;;;;10.14;63.29;95191.03;4920016;29;20059;-80
2024/03/29 10:18:37;;;;;;;8.95;6.32;;;;;;;10.18;62.76;95172.13;4918519;29;20052;-81
2024/03/29 10:21:06;;;;;;;4.07;2.35;;;;;;;10.23;63.00;95143.66;4919799;29;20056;-80
2024/03/29 10:23:35;;;;;;;1.98;1.33;;;;;;;10.26;62.60;95106.72;4922215;29;20080;-78
2024/03/29 10:26:01;;;;;;;1.08;0.95;;;;;;;10.31;62.64;95101.66;4934538;29;20122;-79
2024/03/29 10:28:32;;;;;;;1.42;1.20;;;;;;;10.38;62.85;95075.53;4930600;29;20052;-78
2024/03/29 10:30:58;;;;;;;1.80;1.52;;;;;;;10.43;63.01;95054.84;4921273;29;20056;-78
2024/03/29 10:33:33;;;;;;;1.95;1.23;;;;;;;10.51;63.56;95038.88;4939473;29;20056;-82
2024/03/29 10:36:00;;;;;;;2.03;1.08;;;;;;;10.58;63.23;95035.41;4918887;29;20115;-81
2024/03/29 10:38:28;;;;;;;1.40;1.30;;;;;;;10.62;63.35;95041.78;4921152;29;20432;-81
2024/03/29 10:40:55;;;;;;;1.58;1.48;;;;;;;10.64;63.88;95037.94;4918422;29;20060;-81
2024/03/29 10:43:22;;;;;;;3.45;1.73;;;;;;;10.68;63.88;95036.47;4918382;29;20432;-81
2024/03/29 10:45:50;;;;;;;3.63;1.52;;;;;;;10.70;62.06;95044.09;4918061;29;20056;-82
2024/03/29 10:48:26;;;;;;;1.52;1.30;;;;;;;10.66;61.79;95059.38;4919966;29;20508;-81
2024/03/29 10:50:56;;;;;;;3.55;2.17;;;;;;;10.65;62.09;95057.78;4919873;29;20405;-80
2024/03/29 10:53:25;;;;;;;1.90;1.42;;;;;;;10.65;61.79;95063.00;4918325;29;20060;-79
2024/03/29 10:55:55;;;;;;;1.92;1.25;;;;;;;10.67;61.74;95065.38;4918865;29;20055;-78
2024/03/29 10:58:25;;;;;;;2.75;2.05;;;;;;;10.68;61.70;95080.81;4934180;29;20048;-79
2024/03/29 11:00:57;;;;;;;3.90;1.92;;;;;;;10.70;61.22;95076.16;4919180;29;20083;-79
2024/03/29 11:03:33;;;;;;;2.33;1.40;;;;;;;10.71;60.80;95077.78;4918255;29;20052;-79
2024/03/29 11:06:05;;;;;;;2.83;1.40;;;;;;;10.75;59.93;95092.97;4918062;29;20476;-79
2024/03/29 11:08:34;;;;;;;2.85;1.75;;;;;;;10.76;58.63;95076.28;4918232;29;20059;-79
2024/03/29 11:11:03;;;;;;;1.33;1.20;;;;;;;10.76;58.17;95079.72;4917981;29;20111;-79
2024/03/29 11:13:35;;;;;;;1.42;1.00;;;;;;;10.77;58.03;95096.16;4933874;29;20056;-79
2024/03/29 11:16:01;;;;;;;1.15;1.05;;;;;;;10.75;58.65;95087.75;4917502;29;20052;-79
2024/03/29 11:18:29;;;;;;;1.73;1.23;;;;;;;10.75;58.33;95091.16;4917792;29;20059;-79
2024/03/29 11:20:57;;;;;;;1.75;1.00;;;;;;;10.76;58.30;95084.94;4917922;29;20620;-79
2024/03/29 11:23:27;;;;;;;0.80;0.77;;;;;;;10.75;59.60;95085.16;4917694;29;20141;-79
2024/03/29 11:25:57;;;;;;;2.90;1.02;;;;;;;10.74;58.66;95091.41;4917678;29;20267;-79
2024/03/29 11:28:26;;;;;;;2.65;1.40;;;;;;;10.74;59.14;95086.97;4917530;29;20080;-79
2024/03/29 11:30:56;;;;;;;1.70;1.05;;;;;;;10.77;59.24;95076.09;4929191;29;20112;-79
2024/03/29 11:33:33;;;;;;;2.60;1.25;;;;;;;10.81;59.12;95076.44;4918601;29;20115;-79
2024/03/29 11:36:01;;;;;;;1.63;1.30;;;;;;;10.84;59.38;95070.78;4933278;29;20053;-80
2024/03/29 11:38:34;;;;;;;2.58;1.45;;;;;;;10.92;60.40;95062.66;4917087;29;20052;-79
2024/03/29 11:41:05;;;;;;;1.88;1.02;;;;;;;10.97;58.79;95057.56;4917290;29;20064;-79
2024/03/29 11:43:32;;;;;;;2.35;0.85;;;;;;;11.00;57.60;95048.50;4917345;29;20056;-79
2024/03/29 11:46:00;;;;;;;0.77;0.77;;;;;;;11.04;57.18;95053.06;4917162;29;20107;-79
2024/03/29 11:48:28;;;;;;;0.63;0.63;;;;;;;11.08;57.16;95045.56;4916668;29;20505;-78
2024/03/29 11:50:55;;;;;;;1.25;0.88;;;;;;;11.13;56.78;95038.69;4916801;29;20508;-79
2024/03/29 11:53:22;;;;;;;1.10;1.00;;;;;;;11.19;56.26;95030.97;4917053;29;20053;-79
2024/03/29 11:55:53;;;;;;;1.38;1.10;;;;;;;11.23;55.54;95032.91;4916749;29;20055;-79
2024/03/29 11:58:21;;;;;;;1.40;1.10;;;;;;;11.29;55.84;95036.44;4916592;29;20535;-79
2024/03/29 12:00:48;;;;;;;2.10;1.40;;;;;;;11.34;55.94;95033.94;4923285;29;20079;-80
2024/03/29 12:03:15;;;;;;;0.88;0.88;;;;;;;11.39;55.85;95031.47;4932431;29;20044;-79
2024/03/29 12:05:42;;;;;;;1.15;1.02;;;;;;;11.45;55.87;95024.53;4928774;29;20334;-79
2024/03/29 12:08:10;;;;;;;0.52;0.52;;;;;;;11.51;56.78;95027.03;4917709;29;20512;-79
2024/03/29 12:10:37;;;;;;;0.77;0.70;;;;;;;11.56;55.01;95021.13;4917401;29;20060;-79
2024/03/29 12:13:05;;;;;;;1.75;0.80;;;;;;;11.60;53.62;95024.88;4917362;29;20432;-79
2024/03/29 12:15:32;;;;;;;1.17;0.70;;;;;;;11.65;53.36;95013.75;4916037;29;20059;-80
2024/03/29 12:18:01;;;;;;;1.73;1.20;;;;;;;11.71;53.61;95028.53;4916663;29;20056;-79
2024/03/29 12:20:30;;;;;;;0.60;0.60;;;;;;;11.77;54.27;95021.63;4916758;29;20432;-79
2024/03/29 12:22:56;;;;;;;1.48;0.95;;;;;;;11.81;55.15;95020.94;4917504;29;20056;-79
2024/03/29 12:25:22;;;;;;;1.27;0.90;;;;;;;11.85;54.94;95029.91;4916439;29;20071;-79
2024/03/29 12:27:49;;;;;;;1.17;1.00;;;;;;;11.88;56.93;95024.25;4917110;29;20425;-79
2024/03/29 12:30:18;;;;;;;1.02;0.93;;;;;;;11.92;56.38;95025.38;4916599;29;20060;-79
2024/03/29 12:32:45;;;;;;;1.30;0.90;;;;;;;11.97;56.29;95022.06;4916288;29;20432;-80
2024/03/29 12:35:12;;;;;;;1.50;1.02;;;;;;;12.04;56.07;95016.72;4916221;29;20056;-79
2024/03/29 12:37:48;;;;;;;1.20;1.10;;;;;;;12.09;56.83;95014.22;4915876;29;20531;-79
2024/03/29 12:40:18;;;;;;;1.10;0.98;;;;;;;12.14;56.38;95009.13;4915960;29;20052;-79
2024/03/29 12:42:45;;;;;;;1.65;1.00;;;;;;;12.23;56.99;95012.94;4916243;29;20056;-79
2024/03/29 12:45:12;;;;;;;1.42;1.08;;;;;;;12.30;56.19;95007.59;4916203;29;20432;-80
2024/03/29 12:47:40;;;;;;;0.90;0.90;;;;;;;12.36;56.27;95007.47;4916766;29;20052;-79
2024/03/29 12:50:07;;;;;;;1.95;0.88;;;;;;;12.44;58.05;95011.53;4916269;29;20063;-79
2024/03/29 12:52:37;;;;;;;1.80;1.05;;;;;;;12.51;59.15;95006.19;4915743;29;20524;-79
2024/03/29 12:55:07;;;;;;;2.45;1.10;;;;;;;12.58;56.18;95009.44;4916114;29;20062;-79
2024/03/29 12:57:34;;;;;;;1.30;1.13;;;;;;;12.65;57.64;95006.69;4915840;29;20520;-79
2024/03/29 13:00:00;;;;;;;1.30;0.90;;;;;;;12.73;55.99;95001.09;4916165;29;20067;-79
2024/03/29 13:02:27;;;;;;;1.50;0.70;;;;;;;12.84;55.60;95000.25;4915872;29;20072;-79
2024/03/29 13:04:56;;;;;;;1.65;0.90;;;;;;;12.97;56.11;94988.69;4915668;29;20063;-79
2024/03/29 13:07:23;;;;;;;3.00;0.90;;;;;;;13.10;55.65;94982.38;4915690;29;20531;-79
2024/03/29 13:09:49;;;;;;;1.35;0.77;;;;;;;13.20;55.28;94983.28;4916085;29;20059;-80
2024/03/29 13:12:16;;;;;;;1.27;1.00;;;;;;;13.31;54.59;94986.91;4915801;29;20071;-79
2024/03/29 13:14:43;;;;;;;0.60;0.60;;;;;;;13.39;54.15;94985.72;4916221;29;20060;-81
2024/03/29 13:17:10;;;;;;;1.02;0.85;;;;;;;13.46;53.91;94975.88;4916461;29;20133;-80
2024/03/29 13:19:37;;;;;;;1.48;0.88;;;;;;;13.53;54.46;94986.97;4916360;29;20059;-80
2024/03/29 13:22:06;;;;;;;2.05;1.02;;;;;;;13.59;54.99;94996.50;4916092;29;20067;-79
2024/03/29 13:24:33;;;;;;;1.75;1.00;;;;;;;13.65;54.66;94993.97;4915934;29;20428;-80
2024/03/29 13:26:59;;;;;;;1.98;1.23;;;;;;;13.68;54.59;95004.75;4915386;29;20052;-79
2024/03/29 13:29:26;;;;;;;1.25;0.85;;;;;;;13.69;55.40;95016.03;4915579;29;20063;-79
2024/03/29 13:31:53;;;;;;;1.52;0.77;;;;;;;13.69;55.83;95016.03;4915854;29;20535;-80
2024/03/29 13:34:20;;;;;;;1.55;1.45;;;;;;;13.70;55.75;95020.22;4917766;29;20099;-79
2024/03/29 13:36:47;;;;;;;1.45;1.02;;;;;;;13.73;55.87;95017.13;4916469;29;20578;-79
2024/03/29 13:39:16;;;;;;;1.23;0.95;;;;;;;13.78;56.11;95025.06;4915832;29;20444;-79
2024/03/29 13:41:42;;;;;;;3.20;0.93;;;;;;;13.85;55.41;95025.69;4915585;29;20052;-79
2024/03/29 13:44:09;;;;;;;1.15;1.00;;;;;;;13.93;55.83;95035.00;4925393;29;20052;-80
2024/03/29 13:46:37;;;;;;;1.20;1.10;;;;;;;14.00;55.50;95036.41;4918693;29;20067;-80
2024/03/29 13:49:04;;;;;;;2.25;1.38;;;;;;;14.11;54.35;95032.09;4915861;29;20060;-79
2024/03/29 13:51:30;;;;;;;2.22;0.98;;;;;;;14.21;54.28;95039.28;4915726;29;20063;-79
2024/03/29 13:53:58;;;;;;;1.23;0.98;;;;;;;14.31;54.93;95036.78;4915873;29;20063;-79
2024/03/29 13:56:26;;;;;;;3.50;1.30;;;;;;;14.42;55.24;95035.88;4915313;29;20107;-79
2024/03/29 13:58:53;;;;;;;1.25;1.00;;;;;;;14.50;53.72;95041.75;4915361;29;20049;-79
2024/03/29 14:01:20;;;;;;;1.00;0.98;;;;;;;14.57;53.31;95043.19;4915484;29;20056;-79
2024/03/29 14:03:46;;;;;;;1.67;1.13;;;;;;;14.64;53.97;95043.00;4915820;29;20067;-79
2024/03/29 14:06:13;;;;;;;1.27;1.00;;;;;;;14.69;53.36;95056.16;4914845;29;20081;-80
2024/03/29 14:08:40;;;;;;;3.38;0.98;;;;;;;14.70;52.70;95055.13;4914963;29;20520;-80
2024/03/29 14:11:07;;;;;;;0.85;0.70;;;;;;;14.73;51.97;95052.00;4915506;29;20052;-80
2024/03/29 14:13:35;;;;;;;1.17;0.88;;;;;;;14.76;51.79;95054.16;4915266;29;20060;-81
2024/03/29 14:16:03;;;;;;;1.20;0.68;;;;;;;14.84;51.79;95050.28;4914486;29;20063;-79
2024/03/29 14:18:30;;;;;;;1.65;0.82;;;;;;;14.89;51.42;95049.56;4914780;29;20521;-80
2024/03/29 14:20:58;;;;;;;1.45;0.88;;;;;;;14.94;51.10;95052.25;4915345;29;20431;-79
2024/03/29 14:23:25;;;;;;;1.73;1.10;;;;;;;14.98;50.90;95048.09;4915187;29;20056;-79
2024/03/29 14:25:51;;;;;;;2.28;0.88;;;;;;;15.01;51.69;95037.88;4915058;29;20060;-80
2024/03/29 14:28:18;;;;;;;1.48;0.95;;;;;;;15.02;51.07;95038.66;4915061;29;20053;-79
2024/03/29 14:30:46;;;;;;;1.75;1.10;;;;;;;15.03;51.06;95035.00;4915207;29;20063;-79
2024/03/29 14:33:13;;;;;;;1.90;1.13;;;;;;;15.06;50.90;95025.84;4915306;29;20060;-79
2024/03/29 14:35:39;;;;;;;1.40;1.05;;;;;;;15.08;50.79;95015.88;4915096;29;20067;-79
2024/03/29 14:38:06;;;;;;;1.00;0.70;;;;;;;15.11;51.08;95012.75;4915037;29;20052;-79
2024/03/29 14:40:32;;;;;;;1.52;1.02;;;;;;;15.14;51.08;95007.78;4918420;29;20512;-79
2024/03/29 14:42:59;;;;;;;2.42;1.05;;;;;;;15.16;51.23;95002.31;4918870;29;20071;-79
2024/03/29 14:45:26;;;;;;;1.15;1.00;;;;;;;15.18;51.11;95003.63;4918193;29;20064;-79
2024/03/29 14:47:54;;;;;;;2.00;1.05;;;;;;;15.20;51.34;95004.19;4918279;29;20531;-79
2024/03/29 14:50:21;;;;;;;1.88;1.20;;;;;;;15.24;51.64;94989.50;4918148;29;20056;-80
2024/03/29 14:52:47;;;;;;;0.95;0.95;;;;;;;15.29;51.49;94985.34;4918170;29;20055;-79
2024/03/29 14:55:14;;;;;;;1.02;0.70;;;;;;;15.30;52.10;94986.91;4918208;29;20064;-79
2024/03/29 14:57:41;;;;;;;0.95;0.88;;;;;;;15.33;51.56;94978.53;4918214;29;20063;-79
2024/03/29 15:00:09;;;;;;;1.38;0.88;;;;;;;15.35;51.07;94981.69;4918272;29;20059;-79
2024/03/29 15:02:36;;;;;;;1.55;1.00;;;;;;;15.38;51.00;94981.97;4918148;29;20436;-79
2024/03/29 15:05:05;;;;;;;1.50;0.90;;;;;;;15.40;50.47;94981.75;4925121;29;20512;-80
2024/03/29 15:07:32;;;;;;;0.80;0.80;;;;;;;15.41;50.63;94985.94;4941599;29;20074;-80
2024/03/29 15:10:00;;;;;;;2.28;0.93;;;;;;;15.42;51.08;94990.94;4941524;29;20040;-80
2024/03/29 15:12:27;;;;;;;1.73;0.93;;;;;;;15.45;51.15;94984.41;4941613;29;20048;-80
2024/03/29 15:14:53;;;;;;;1.25;1.00;;;;;;;15.46;50.72;94983.38;4930966;29;20071;-80
2024/03/29 19:17:39;;;;;;;3.35;2.92;;;;;;;12.89;62.39;94957.66;5923919;23;20019;-86
2024/03/29 19:20:06;;;;;;;3.83;2.75;;;;;;;12.87;62.34;94951.88;4968980;29;20059;-91
2024/03/29 19:22:33;;;;;;;4.75;2.75;;;;;;;12.86;62.36;94955.53;4971183;29;20074;-91
2024/03/29 19:24:59;;;;;;;3.20;2.50;;;;;;;12.85;62.56;94953.94;4967963;28;20422;-90
2024/03/29 19:27:26;;;;;;;2.92;2.30;;;;;;;12.84;63.57;94954.97;4969002;29;20061;-90
2024/03/29 19:29:52;;;;;;;5.00;3.75;;;;;;;12.82;63.23;94959.66;4968535;29;20055;-89
2024/03/29 19:46:26;;;;;;;7.28;3.30;;;;;;;12.59;64.04;94950.84;4999494;28;20035;-82
2024/03/29 19:49:01;;;;;;;5.40;3.78;;;;;;;12.53;63.88;94951.81;5002262;28;20033;-82
2024/03/29 23:57:17;;;;;;;67.95;12.00;;;;;;;14.47;46.98;94968.78;5913011;23;21153;-79
2024/03/29 23:59:43;;;;;;;79.38;13.77;;;;;;;14.44;45.97;94967.44;4955189;29;20058;-80
